Time;durP1;ratioP1;P1;durP2;ratioP2;P2;SDS_P1;SDS_P2;PMS_P1;PMS_P2;Temp;Humidity;BMP_temperature;BMP_pressure;BME280_temperature;BME280_humidity;BME280_pressure;Samples;Min_cycle;Max_cycle;Signal;HPM_P1;HPM_P2
2023/11/12 00:01:56;;;;;;;9.67;7.33;;;7.60;97.70;;;;;;4975696;28;20453;-71
2023/11/12 00:04:24;;;;;;;11.07;9.63;;;7.60;97.70;;;;;;4976878;28;20503;-72
2023/11/12 00:06:51;;;;;;;9.23;7.97;;;7.60;97.80;;;;;;4976428;28;20448;-71
2023/11/12 00:09:18;;;;;;;8.53;7.73;;;7.60;97.70;;;;;;4976380;28;20465;-71
2023/11/12 00:11:45;;;;;;;10.30;8.80;;;7.60;97.60;;;;;;4975917;28;20512;-71
2023/11/12 00:14:12;;;;;;;10.70;7.70;;;7.60;97.40;;;;;;4976400;28;20452;-71
2023/11/12 00:16:40;;;;;;;9.70;7.50;;;7.50;97.30;;;;;;4976306;28;20857;-73
2023/11/12 00:19:07;;;;;;;14.60;9.23;;;7.50;97.30;;;;;;4975907;28;20469;-72
2023/11/12 00:21:35;;;;;;;9.00;8.10;;;7.50;97.40;;;;;;4975477;28;20445;-72
2023/11/12 00:24:03;;;;;;;14.47;7.23;;;7.50;97.30;;;;;;4975707;28;20453;-72
2023/11/12 00:26:29;;;;;;;10.30;7.57;;;7.40;97.30;;;;;;4975537;28;20540;-73
2023/11/12 00:28:56;;;;;;;15.90;7.90;;;7.50;97.50;;;;;;4975058;28;20465;-72
2023/11/12 00:31:23;;;;;;;9.40;7.77;;;7.40;97.40;;;;;;4975214;28;20472;-73
2023/11/12 00:33:52;;;;;;;11.60;7.70;;;7.40;97.40;;;;;;4975371;28;20449;-72
2023/11/12 00:36:19;;;;;;;14.57;6.80;;;7.40;97.40;;;;;;4974995;28;20487;-73
2023/11/12 00:38:47;;;;;;;12.77;6.53;;;7.40;97.50;;;;;;4975027;28;20489;-73
2023/11/12 00:41:19;;;;;;;11.17;6.07;;;7.40;97.50;;;;;;4975019;28;20454;-72
2023/11/12 00:43:46;;;;;;;12.97;8.30;;;7.30;97.70;;;;;;4973496;28;20446;-74
2023/11/12 00:46:13;;;;;;;10.57;7.30;;;7.30;98.00;;;;;;4974907;28;20453;-72
2023/11/12 00:48:40;;;;;;;8.47;5.70;;;7.30;98.30;;;;;;4973779;28;20863;-72
2023/11/12 00:51:06;;;;;;;12.73;7.20;;;7.30;98.70;;;;;;4973334;28;20452;-72
2023/11/12 00:53:47;;;;;;;9.57;7.47;;;7.30;99.00;;;;;;4973797;28;20453;-72
2023/11/12 00:56:16;;;;;;;10.10;7.30;;;7.30;99.40;;;;;;4973904;28;20457;-72
2023/11/12 00:58:44;;;;;;;11.20;7.10;;;7.20;99.90;;;;;;4974670;28;20460;-72
2023/11/12 01:01:11;;;;;;;11.17;8.10;;;7.20;99.90;;;;;;4974270;28;20455;-72
2023/11/12 01:03:38;;;;;;;11.10;8.23;;;7.20;99.90;;;;;;4974895;28;20495;-73
2023/11/12 01:06:05;;;;;;;13.97;7.80;;;7.10;99.90;;;;;;4974909;28;20441;-71
2023/11/12 01:08:34;;;;;;;11.67;8.10;;;7.10;99.90;;;;;;4973795;28;20451;-72
2023/11/12 01:11:01;;;;;;;10.40;9.00;;;7.00;99.90;;;;;;4975018;28;20568;-72
2023/11/12 01:13:29;;;;;;;12.77;8.90;;;7.00;99.90;;;;;;4975507;28;20453;-71
2023/11/12 01:15:56;;;;;;;11.07;8.10;;;6.90;99.90;;;;;;4978295;28;20939;-71
2023/11/12 01:18:27;;;;;;;11.00;7.17;;;6.90;99.90;;;;;;4978434;28;20484;-72
2023/11/12 01:20:54;;;;;;;10.60;8.00;;;6.90;99.90;;;;;;4978686;28;20465;-72
2023/11/12 01:23:22;;;;;;;11.93;9.67;;;7.00;99.90;;;;;;4978445;28;20452;-72
2023/11/12 01:25:49;;;;;;;10.03;8.40;;;7.00;99.90;;;;;;4978548;28;20492;-72
2023/11/12 01:28:16;;;;;;;10.17;8.93;;;7.00;99.90;;;;;;4979210;28;20452;-72
2023/11/12 01:30:44;;;;;;;10.57;7.53;;;7.00;99.90;;;;;;4978798;28;20513;-72
2023/11/12 01:33:12;;;;;;;9.67;8.00;;;7.00;99.90;;;;;;4978370;28;20448;-72
2023/11/12 01:35:39;;;;;;;10.80;9.10;;;7.00;99.90;;;;;;4978916;28;20449;-72
2023/11/12 01:38:07;;;;;;;9.70;8.20;;;7.10;99.90;;;;;;4978137;28;20843;-72
2023/11/12 01:40:42;;;;;;;12.50;8.80;;;7.10;99.90;;;;;;4978559;28;20846;-72
2023/11/12 01:43:12;;;;;;;12.80;9.00;;;7.10;99.90;;;;;;4977997;28;20459;-72
2023/11/12 01:45:43;;;;;;;11.93;8.20;;;7.10;99.90;;;;;;4977488;28;20436;-71
2023/11/12 01:48:13;;;;;;;9.10;7.20;;;7.10;99.90;;;;;;4977056;28;20472;-72
2023/11/12 01:50:41;;;;;;;11.33;8.10;;;7.10;99.90;;;;;;4961220;28;20532;-72
2023/11/12 01:53:09;;;;;;;11.50;8.77;;;7.10;99.90;;;;;;4978071;28;20460;-72
2023/11/12 01:55:38;;;;;;;9.13;7.50;;;7.10;99.90;;;;;;4977847;28;20913;-72
2023/11/12 01:58:05;;;;;;;10.03;8.90;;;7.10;99.90;;;;;;4977749;28;20493;-72
2023/11/12 02:00:33;;;;;;;16.57;9.17;;;7.10;99.90;;;;;;4977783;28;20465;-72
2023/11/12 02:03:02;;;;;;;9.63;7.20;;;7.10;99.90;;;;;;4977964;28;20484;-73
2023/11/12 02:05:32;;;;;;;8.30;7.50;;;7.10;99.90;;;;;;4990358;28;20449;-72
2023/11/12 02:08:04;;;;;;;9.73;7.80;;;7.10;99.90;;;;;;4986883;28;20473;-72
2023/11/12 02:10:35;;;;;;;9.50;8.43;;;7.00;99.90;;;;;;4981432;28;20900;-72
2023/11/12 02:13:04;;;;;;;8.73;7.80;;;7.00;99.90;;;;;;4980233;28;20453;-73
2023/11/12 02:15:32;;;;;;;8.63;7.40;;;7.00;99.90;;;;;;4978682;28;20504;-72
2023/11/12 02:17:59;;;;;;;8.80;7.07;;;7.00;99.90;;;;;;4978537;28;20979;-73
2023/11/12 02:20:26;;;;;;;9.90;6.60;;;7.00;99.90;;;;;;4977988;28;20469;-72
2023/11/12 02:22:55;;;;;;;8.10;7.30;;;7.00;99.90;;;;;;4976510;28;20868;-72
2023/11/12 02:25:23;;;;;;;10.97;8.20;;;7.00;99.90;;;;;;4981177;28;20461;-72
2023/11/12 02:27:50;;;;;;;7.83;7.03;;;7.00;99.90;;;;;;4979935;28;20536;-72
2023/11/12 02:30:18;;;;;;;8.17;6.53;;;7.00;99.90;;;;;;4978316;28;20469;-72
2023/11/12 02:32:47;;;;;;;9.67;7.00;;;7.00;99.90;;;;;;4978204;28;20453;-72
2023/11/12 02:35:14;;;;;;;11.50;7.57;;;7.00;99.90;;;;;;4978240;28;20460;-72
2023/11/12 02:37:44;;;;;;;7.27;6.57;;;7.00;99.90;;;;;;4978235;28;20481;-73
2023/11/12 02:40:12;;;;;;;12.80;7.93;;;7.00;99.90;;;;;;4978287;28;20469;-72
2023/11/12 02:42:40;;;;;;;11.33;9.17;;;7.00;99.90;;;;;;4976097;28;20816;-73
2023/11/12 02:45:10;;;;;;;10.73;8.57;;;7.00;99.90;;;;;;4978518;28;20456;-73
2023/11/12 02:47:39;;;;;;;17.87;8.40;;;7.00;99.90;;;;;;4977248;28;20836;-72
2023/11/12 02:50:24;;;;;;;9.93;7.70;;;6.90;99.90;;;;;;4976604;28;21078;-72
2023/11/12 02:52:53;;;;;;;13.87;8.53;;;7.00;99.90;;;;;;4975666;28;20453;-72
2023/11/12 02:55:20;;;;;;;11.83;8.93;;;7.00;99.90;;;;;;4975314;28;20927;-72
2023/11/12 02:57:49;;;;;;;18.90;8.70;;;7.00;99.90;;;;;;4976286;28;20825;-73
2023/11/12 03:00:16;;;;;;;14.67;8.33;;;7.00;99.90;;;;;;4975078;28;20477;-72
2023/11/12 03:02:45;;;;;;;14.57;8.77;;;7.10;99.90;;;;;;4976153;28;20449;-72
2023/11/12 03:05:12;;;;;;;18.93;8.80;;;7.10;99.90;;;;;;4975966;28;20457;-72
2023/11/12 03:07:41;;;;;;;19.80;9.50;;;7.10;99.90;;;;;;4976320;28;20477;-73
2023/11/12 03:10:09;;;;;;;16.47;8.60;;;7.10;99.90;;;;;;4974772;28;20492;-73
2023/11/12 03:12:38;;;;;;;14.33;9.20;;;7.10;99.90;;;;;;4975542;28;20441;-73
2023/11/12 03:15:09;;;;;;;12.93;8.70;;;7.00;99.90;;;;;;4977906;28;20453;-72
2023/11/12 03:17:37;;;;;;;11.17;8.60;;;7.00;99.90;;;;;;4977581;28;20531;-72
2023/11/12 03:20:08;;;;;;;13.47;9.03;;;7.00;99.90;;;;;;4981609;28;20476;-72
2023/11/12 03:22:35;;;;;;;11.43;7.97;;;7.00;99.90;;;;;;4980601;28;20453;-72
2023/11/12 03:25:04;;;;;;;11.03;8.90;;;7.00;99.90;;;;;;4978891;28;20461;-73
2023/11/12 03:27:31;;;;;;;11.30;7.60;;;7.00;99.90;;;;;;4981266;28;20456;-74
2023/11/12 03:29:58;;;;;;;8.53;7.73;;;7.00;99.90;;;;;;4979573;28;21002;-73
2023/11/12 03:32:26;;;;;;;11.47;9.77;;;7.00;99.90;;;;;;4979471;28;20548;-73
2023/11/12 03:34:53;;;;;;;8.53;7.67;;;7.00;99.90;;;;;;4979158;28;20839;-73
2023/11/12 03:37:22;;;;;;;8.23;7.43;;;7.00;99.90;;;;;;4977477;28;20527;-73
2023/11/12 03:39:56;;;;;;;14.83;8.50;;;7.00;99.90;;;;;;4977541;28;20579;-73
2023/11/12 03:42:23;;;;;;;8.60;6.37;;;7.00;99.90;;;;;;4977346;28;20425;-73
2023/11/12 03:44:50;;;;;;;11.23;9.10;;;7.00;99.90;;;;;;4976822;28;20807;-74
2023/11/12 03:47:18;;;;;;;20.10;7.43;;;7.10;99.90;;;;;;4977265;28;20437;-73
2023/11/12 03:49:46;;;;;;;9.27;7.20;;;7.10;99.90;;;;;;4976635;28;20469;-73
2023/11/12 03:52:13;;;;;;;8.80;7.00;;;7.10;99.90;;;;;;4977334;28;20449;-73
2023/11/12 03:54:42;;;;;;;12.30;7.57;;;7.10;99.90;;;;;;4977829;28;20455;-73
2023/11/12 03:57:09;;;;;;;11.23;7.17;;;7.10;99.90;;;;;;4976781;28;20449;-73
2023/11/12 03:59:36;;;;;;;8.13;7.40;;;7.10;99.90;;;;;;4976500;28;20473;-73
2023/11/12 04:02:05;;;;;;;7.63;6.63;;;7.00;99.90;;;;;;4975375;28;20476;-73
2023/11/12 04:04:32;;;;;;;7.17;6.17;;;7.00;99.90;;;;;;4975914;28;20460;-74
2023/11/12 04:07:03;;;;;;;7.77;7.07;;;7.00;99.90;;;;;;4975432;28;20449;-74
2023/11/12 04:09:30;;;;;;;7.77;6.97;;;7.00;99.90;;;;;;4972983;28;20506;-74
2023/11/12 04:11:57;;;;;;;8.80;7.60;;;7.00;99.90;;;;;;4975772;28;20453;-75
2023/11/12 04:14:24;;;;;;;8.00;7.30;;;7.00;99.90;;;;;;4976266;28;20521;-75
2023/11/12 04:16:50;;;;;;;7.13;6.43;;;7.00;99.90;;;;;;4975834;28;20445;-74
2023/11/12 04:19:17;;;;;;;8.87;6.30;;;7.00;99.90;;;;;;4978217;28;20489;-74
2023/11/12 04:21:46;;;;;;;9.50;6.33;;;7.00;99.90;;;;;;4986994;28;20447;-74
2023/11/12 04:24:14;;;;;;;7.20;6.33;;;7.00;99.90;;;;;;4981905;28;20445;-75
2023/11/12 04:26:42;;;;;;;7.63;6.50;;;7.10;99.90;;;;;;4978628;28;20833;-74
2023/11/12 04:29:10;;;;;;;7.00;6.30;;;7.10;99.90;;;;;;4976307;28;20476;-75
2023/11/12 04:31:39;;;;;;;7.80;6.63;;;7.10;99.90;;;;;;4975829;28;20495;-75
2023/11/12 04:34:07;;;;;;;7.73;6.93;;;7.10;99.90;;;;;;4976628;28;20516;-73
2023/11/12 04:36:36;;;;;;;10.10;6.70;;;7.10;99.90;;;;;;4976062;28;20464;-73
2023/11/12 04:39:04;;;;;;;12.33;5.57;;;7.10;99.90;;;;;;4975309;28;21006;-73
2023/11/12 04:41:32;;;;;;;7.17;6.23;;;7.10;99.90;;;;;;4975458;28;20457;-74
2023/11/12 04:43:59;;;;;;;7.83;6.40;;;7.10;99.90;;;;;;4974643;28;20451;-73
2023/11/12 04:46:28;;;;;;;7.73;6.60;;;7.10;99.90;;;;;;4975660;28;20453;-74
2023/11/12 04:48:55;;;;;;;6.03;5.10;;;7.10;99.90;;;;;;4976864;28;20461;-74
2023/11/12 04:51:22;;;;;;;7.60;4.97;;;7.10;99.90;;;;;;4979221;28;20452;-73
2023/11/12 04:53:50;;;;;;;7.40;5.80;;;7.10;99.90;;;;;;4979865;28;20453;-74
2023/11/12 04:56:17;;;;;;;5.60;5.10;;;7.10;99.90;;;;;;4977744;28;20445;-74
2023/11/12 04:58:47;;;;;;;6.33;5.63;;;7.10;99.90;;;;;;4979580;28;20481;-74
2023/11/12 05:01:20;;;;;;;5.93;4.97;;;7.10;99.90;;;;;;4980000;28;20445;-73
2023/11/12 05:03:47;;;;;;;8.30;4.83;;;7.10;99.90;;;;;;4981653;28;20899;-73
2023/11/12 05:06:15;;;;;;;5.10;4.43;;;7.10;99.90;;;;;;4981946;28;20922;-74
2023/11/12 05:08:44;;;;;;;11.03;5.67;;;7.00;99.90;;;;;;4977474;28;20508;-74
2023/11/12 05:11:11;;;;;;;6.13;5.07;;;7.00;99.90;;;;;;4977298;28;20481;-74
2023/11/12 05:13:40;;;;;;;5.07;4.67;;;7.00;99.70;;;;;;4978324;28;20445;-75
2023/11/12 05:16:10;;;;;;;4.83;4.20;;;7.00;99.60;;;;;;4976708;28;20449;-76
2023/11/12 05:18:36;;;;;;;5.20;4.70;;;7.00;99.40;;;;;;4977693;28;20485;-75
2023/11/12 05:21:06;;;;;;;6.20;5.60;;;6.90;99.20;;;;;;4978098;28;20456;-75
2023/11/12 05:23:33;;;;;;;5.60;5.10;;;6.90;99.00;;;;;;4976967;28;20448;-76
2023/11/12 05:26:00;;;;;;;6.87;6.07;;;6.90;98.90;;;;;;4978096;28;20448;-75
2023/11/12 05:28:28;;;;;;;6.20;5.60;;;6.90;98.90;;;;;;4977044;28;20441;-76
2023/11/12 05:30:55;;;;;;;5.47;5.00;;;6.80;98.80;;;;;;4977926;28;20884;-75
2023/11/12 05:33:24;;;;;;;5.90;5.33;;;6.80;98.60;;;;;;4977985;28;20473;-76
2023/11/12 05:35:50;;;;;;;7.33;5.20;;;6.80;98.50;;;;;;4977728;28;20472;-75
2023/11/12 05:38:18;;;;;;;5.63;5.13;;;6.80;98.30;;;;;;4977442;28;21025;-76
2023/11/12 05:40:45;;;;;;;6.30;4.73;;;6.70;98.10;;;;;;4960335;28;20477;-76
2023/11/12 05:43:12;;;;;;;5.60;4.97;;;6.70;98.10;;;;;;4977407;28;20526;-75
2023/11/12 05:45:39;;;;;;;8.10;5.30;;;6.70;98.10;;;;;;4960214;28;20485;-75
2023/11/12 05:48:07;;;;;;;5.03;4.40;;;6.70;98.00;;;;;;4977320;28;20927;-75
2023/11/12 05:50:36;;;;;;;5.33;4.83;;;6.60;97.90;;;;;;4977552;28;20504;-76
2023/11/12 05:53:03;;;;;;;7.93;5.80;;;6.60;97.90;;;;;;4977938;28;20495;-76
2023/11/12 05:55:30;;;;;;;6.60;5.13;;;6.60;97.90;;;;;;4977238;28;20456;-75
2023/11/12 05:57:57;;;;;;;6.97;5.40;;;6.60;98.00;;;;;;4977063;28;20445;-77
2023/11/12 06:00:24;;;;;;;5.97;5.20;;;6.60;98.10;;;;;;4976764;28;20536;-76
2023/11/12 06:02:50;;;;;;;6.90;4.80;;;6.50;98.00;;;;;;4977278;28;20445;-75
2023/11/12 06:05:17;;;;;;;6.00;5.17;;;6.50;97.90;;;;;;4976942;28;20457;-75
2023/11/12 06:07:46;;;;;;;5.30;4.80;;;6.50;97.90;;;;;;4977181;28;20453;-76
2023/11/12 06:10:13;;;;;;;5.23;4.73;;;6.50;97.90;;;;;;4978168;28;20474;-76
2023/11/12 06:12:40;;;;;;;6.70;5.87;;;6.50;97.80;;;;;;4978607;28;20453;-77
2023/11/12 06:15:07;;;;;;;5.63;5.13;;;6.40;97.60;;;;;;4977577;28;20549;-76
2023/11/12 06:17:34;;;;;;;5.70;5.00;;;6.40;97.50;;;;;;4977001;28;20456;-75
2023/11/12 06:20:03;;;;;;;10.37;5.47;;;6.40;97.50;;;;;;4977088;28;20847;-76
2023/11/12 06:22:29;;;;;;;7.00;5.60;;;6.40;97.40;;;;;;4975842;28;20544;-76
2023/11/12 06:24:58;;;;;;;6.40;5.57;;;6.40;97.30;;;;;;4975638;28;20446;-75
2023/11/12 06:27:25;;;;;;;5.87;5.27;;;6.30;97.30;;;;;;4976632;28;20830;-74
2023/11/12 06:29:51;;;;;;;6.23;5.63;;;6.30;97.30;;;;;;4975735;28;20472;-75
2023/11/12 06:32:18;;;;;;;5.53;5.03;;;6.30;97.50;;;;;;4977094;28;20445;-76
2023/11/12 06:34:45;;;;;;;7.13;6.30;;;6.30;97.50;;;;;;4989044;28;20450;-75
2023/11/12 06:37:12;;;;;;;7.53;5.80;;;6.30;97.50;;;;;;4981585;28;20931;-76
2023/11/12 06:39:38;;;;;;;8.23;5.83;;;6.30;97.40;;;;;;4979293;28;20520;-75
2023/11/12 06:42:09;;;;;;;5.80;5.30;;;6.30;97.30;;;;;;4977814;28;20492;-75
2023/11/12 06:44:38;;;;;;;7.30;6.30;;;6.20;97.20;;;;;;4978262;28;20883;-75
2023/11/12 06:47:05;;;;;;;5.97;5.37;;;6.20;97.10;;;;;;4976916;28;20453;-75
2023/11/12 06:49:32;;;;;;;6.77;5.20;;;6.20;97.00;;;;;;4976526;28;20979;-75
2023/11/12 06:51:59;;;;;;;8.60;6.13;;;6.20;96.90;;;;;;4959768;28;20951;-75
2023/11/12 06:54:26;;;;;;;6.00;5.40;;;6.10;96.80;;;;;;4977090;28;20445;-75
2023/11/12 06:56:53;;;;;;;5.97;5.37;;;6.10;96.80;;;;;;4975068;28;20477;-76
2023/11/12 06:59:22;;;;;;;6.03;5.43;;;6.10;96.80;;;;;;4975112;28;20564;-75
2023/11/12 07:01:49;;;;;;;7.57;5.53;;;6.10;96.80;;;;;;4976645;28;20958;-75
2023/11/12 07:04:16;;;;;;;7.10;6.10;;;6.10;96.70;;;;;;4976438;28;20468;-75
2023/11/12 07:06:43;;;;;;;13.47;6.30;;;6.00;96.60;;;;;;4976172;28;20428;-75
2023/11/12 07:09:12;;;;;;;6.90;5.97;;;6.10;96.70;;;;;;4975954;28;20983;-75
2023/11/12 07:11:39;;;;;;;6.30;5.50;;;6.00;96.70;;;;;;4976136;28;20453;-76
2023/11/12 07:14:06;;;;;;;7.60;5.90;;;6.00;96.60;;;;;;4976113;28;20450;-76
2023/11/12 07:16:35;;;;;;;6.70;5.40;;;6.00;96.60;;;;;;4975648;28;20965;-76
2023/11/12 07:19:03;;;;;;;6.27;5.77;;;6.00;96.60;;;;;;4975516;28;21021;-75
2023/11/12 07:21:32;;;;;;;7.50;5.50;;;6.00;96.60;;;;;;4975875;28;20446;-76
2023/11/12 07:23:59;;;;;;;8.37;6.47;;;6.00;96.60;;;;;;4975452;28;20827;-76
2023/11/12 07:26:27;;;;;;;9.73;5.97;;;6.00;96.60;;;;;;4975387;28;20501;-75
2023/11/12 07:28:54;;;;;;;8.17;5.87;;;6.00;96.70;;;;;;4958522;28;20468;-75
2023/11/12 07:31:23;;;;;;;10.07;7.00;;;6.00;96.80;;;;;;4976005;28;20437;-76
2023/11/12 07:33:53;;;;;;;7.10;5.93;;;6.00;96.80;;;;;;4975800;28;20484;-75
2023/11/12 07:36:21;;;;;;;7.97;6.17;;;6.00;96.90;;;;;;4975478;28;20480;-76
2023/11/12 07:38:48;;;;;;;6.73;5.60;;;6.00;96.90;;;;;;4975362;28;20485;-75
2023/11/12 07:41:15;;;;;;;6.30;5.70;;;6.00;97.00;;;;;;4976367;28;20461;-74
2023/11/12 07:43:42;;;;;;;8.70;6.20;;;6.00;97.00;;;;;;4977733;28;20449;-75
2023/11/12 07:46:09;;;;;;;6.90;6.00;;;6.00;97.00;;;;;;4975904;28;20451;-75
2023/11/12 07:48:36;;;;;;;7.40;6.07;;;6.00;97.20;;;;;;4975570;28;20446;-75
2023/11/12 07:51:05;;;;;;;6.23;5.60;;;6.10;97.30;;;;;;4975457;28;20452;-75
2023/11/12 07:53:32;;;;;;;5.93;5.33;;;6.00;97.40;;;;;;4975511;28;20451;-76
2023/11/12 07:55:59;;;;;;;7.50;6.57;;;6.10;97.50;;;;;;4974955;28;20504;-75
2023/11/12 07:58:26;;;;;;;9.60;6.53;;;6.10;97.60;;;;;;4975296;28;20449;-76
2023/11/12 08:00:53;;;;;;;7.17;5.50;;;6.10;97.80;;;;;;4974076;28;20476;-75
2023/11/12 08:03:20;;;;;;;6.33;5.53;;;6.10;97.90;;;;;;4974974;28;20950;-75
2023/11/12 08:05:47;;;;;;;7.10;5.80;;;6.10;97.90;;;;;;4974713;28;20843;-76
2023/11/12 08:08:15;;;;;;;7.43;6.67;;;6.20;98.00;;;;;;4974912;28;20464;-75
2023/11/12 08:10:42;;;;;;;6.23;5.33;;;6.20;98.00;;;;;;4973776;28;20512;-76
2023/11/12 08:13:09;;;;;;;8.40;6.90;;;6.20;98.10;;;;;;4973993;28;20457;-76
2023/11/12 08:15:36;;;;;;;9.13;7.20;;;6.20;98.20;;;;;;4974971;28;20448;-77
2023/11/12 08:18:05;;;;;;;8.23;6.10;;;6.30;98.30;;;;;;4974532;28;20931;-75
2023/11/12 08:20:32;;;;;;;9.63;7.80;;;6.30;98.50;;;;;;4975213;28;20512;-75
2023/11/12 08:22:59;;;;;;;8.80;7.90;;;6.40;98.70;;;;;;4975040;28;20953;-75
2023/11/12 08:25:30;;;;;;;8.27;6.77;;;6.40;99.00;;;;;;4975402;28;20966;-75
2023/11/12 08:27:57;;;;;;;10.97;7.63;;;6.40;99.30;;;;;;4975410;28;20806;-76
2023/11/12 08:30:24;;;;;;;9.23;8.33;;;6.50;99.70;;;;;;4974259;28;20465;-75
2023/11/12 08:32:51;;;;;;;8.90;8.00;;;6.50;99.90;;;;;;4973886;28;20449;-75
2023/11/12 08:35:18;;;;;;;10.43;8.13;;;6.50;99.90;;;;;;4973989;28;20449;-75
2023/11/12 08:37:46;;;;;;;10.07;7.73;;;6.60;99.90;;;;;;4974662;28;20445;-75
2023/11/12 08:40:15;;;;;;;11.10;8.07;;;6.60;99.90;;;;;;4976244;28;20577;-74
2023/11/12 08:42:43;;;;;;;9.17;7.80;;;6.60;99.90;;;;;;4974052;28;20449;-73
2023/11/12 08:45:10;;;;;;;13.10;8.70;;;6.70;99.90;;;;;;4979908;28;20458;-72
2023/11/12 08:47:37;;;;;;;13.30;9.77;;;6.70;99.90;;;;;;4988519;28;20524;-72
2023/11/12 08:50:04;;;;;;;8.47;7.63;;;6.80;99.90;;;;;;4979159;28;20998;-73
2023/11/12 08:52:31;;;;;;;13.33;7.17;;;6.90;99.90;;;;;;4977345;28;20453;-73
2023/11/12 08:54:57;;;;;;;9.50;8.17;;;6.90;99.90;;;;;;4976854;28;20449;-73
2023/11/12 08:57:24;;;;;;;8.13;6.40;;;7.00;99.90;;;;;;4976496;28;20445;-73
2023/11/12 08:59:54;;;;;;;8.50;7.00;;;7.10;99.90;;;;;;4976748;28;20493;-73
2023/11/12 09:02:24;;;;;;;8.53;6.57;;;7.20;99.90;;;;;;4975222;28;20473;-73
2023/11/12 09:04:50;;;;;;;7.93;7.13;;;7.20;99.90;;;;;;4973884;28;20460;-73
2023/11/12 09:07:17;;;;;;;10.90;7.70;;;7.30;99.90;;;;;;4974564;28;20827;-74
2023/11/12 09:09:45;;;;;;;13.10;7.90;;;7.40;99.90;;;;;;4975436;28;20468;-74
2023/11/12 09:12:12;;;;;;;9.33;7.20;;;7.50;99.90;;;;;;4974996;28;20905;-74
2023/11/12 09:14:39;;;;;;;13.07;7.40;;;7.60;99.90;;;;;;4973416;28;20477;-74
2023/11/12 09:17:11;;;;;;;9.83;8.07;;;7.60;99.90;;;;;;4974554;28;20445;-74
2023/11/12 09:19:38;;;;;;;10.90;6.90;;;7.70;99.90;;;;;;4974706;28;20520;-74
2023/11/12 09:22:05;;;;;;;8.03;6.67;;;7.80;99.90;;;;;;4974977;28;20449;-74
2023/11/12 09:24:33;;;;;;;7.03;6.30;;;7.90;99.90;;;;;;4974095;28;20449;-75
2023/11/12 09:27:00;;;;;;;11.40;8.03;;;8.00;99.90;;;;;;4975019;28;20483;-75
2023/11/12 09:29:28;;;;;;;7.77;6.60;;;8.10;99.90;;;;;;4974178;28;20469;-74
2023/11/12 09:31:55;;;;;;;9.13;7.20;;;8.20;99.90;;;;;;4974579;28;20449;-75
2023/11/12 09:34:23;;;;;;;8.83;7.80;;;8.30;99.90;;;;;;4974855;28;20475;-75
2023/11/12 09:36:50;;;;;;;9.13;7.10;;;8.30;99.90;;;;;;4976778;28;20484;-74
2023/11/12 09:39:19;;;;;;;11.50;7.30;;;8.40;99.90;;;;;;4977544;28;20488;-74
2023/11/12 09:41:50;;;;;;;9.23;7.27;;;8.50;99.90;;;;;;4977471;28;20946;-75
2023/11/12 09:44:18;;;;;;;9.53;7.30;;;8.70;99.90;;;;;;4977824;28;20438;-75
2023/11/12 09:46:53;;;;;;;9.67;6.63;;;8.80;99.90;;;;;;4977844;28;20507;-75
2023/11/12 09:49:20;;;;;;;7.60;6.23;;;8.90;99.90;;;;;;4977251;28;20989;-75
2023/11/12 09:51:49;;;;;;;10.33;7.20;;;9.10;99.90;;;;;;4977282;28;20798;-76
2023/11/12 09:54:19;;;;;;;8.97;7.00;;;9.20;99.90;;;;;;4977657;28;20441;-75
2023/11/12 09:56:47;;;;;;;8.53;6.93;;;9.30;99.80;;;;;;4976108;28;20453;-75
2023/11/12 09:59:14;;;;;;;8.27;6.30;;;9.40;99.60;;;;;;4975939;28;20838;-74
2023/11/12 10:01:41;;;;;;;7.60;6.43;;;9.50;99.30;;;;;;4977167;28;20453;-74
2023/11/12 10:04:09;;;;;;;7.07;5.90;;;9.70;99.20;;;;;;4977426;28;20464;-74
2023/11/12 10:06:38;;;;;;;6.70;5.63;;;9.80;99.30;;;;;;4977078;28;20903;-75
2023/11/12 10:09:09;;;;;;;8.67;6.40;;;9.90;98.80;;;;;;4976060;28;20512;-74
2023/11/12 10:11:36;;;;;;;6.30;5.70;;;10.00;98.10;;;;;;4975884;28;20471;-74
2023/11/12 10:14:13;;;;;;;6.83;5.70;;;10.10;97.80;;;;;;4976357;28;20492;-74
2023/11/12 10:16:41;;;;;;;7.50;5.80;;;10.10;97.70;;;;;;4976083;28;20441;-76
2023/11/12 10:19:13;;;;;;;6.27;5.53;;;10.30;97.90;;;;;;4976857;28;20549;-74
2023/11/12 10:21:55;;;;;;;8.40;6.67;;;10.40;98.00;;;;;;4979236;28;20523;-74
2023/11/12 10:24:27;;;;;;;6.77;6.17;;;10.60;97.90;;;;;;4979628;28;20453;-73
2023/11/12 10:26:57;;;;;;;8.00;6.17;;;10.70;98.20;;;;;;4984852;28;20418;-75
2023/11/12 10:29:27;;;;;;;9.13;6.33;;;10.90;98.00;;;;;;4984121;28;20500;-74
2023/11/12 10:31:54;;;;;;;7.90;6.43;;;11.10;97.10;;;;;;4982197;28;20537;-75
2023/11/12 10:34:26;;;;;;;7.80;5.67;;;11.20;96.20;;;;;;4980622;28;20461;-74
2023/11/12 10:37:04;;;;;;;9.13;6.10;;;11.30;96.50;;;;;;4983672;28;20437;-74
2023/11/12 10:39:36;;;;;;;6.33;5.53;;;11.50;96.50;;;;;;4981960;28;20485;-74
2023/11/12 10:42:09;;;;;;;8.67;5.93;;;11.80;96.10;;;;;;4981960;28;20848;-74
2023/11/12 10:44:38;;;;;;;8.20;5.50;;;12.10;95.70;;;;;;4994265;28;20796;-75
2023/11/12 10:47:09;;;;;;;5.30;4.73;;;12.30;94.80;;;;;;4999311;28;20504;-75
2023/11/12 10:49:39;;;;;;;6.80;5.10;;;12.40;94.10;;;;;;4999366;28;20461;-75
2023/11/12 10:52:10;;;;;;;7.87;5.73;;;12.50;93.40;;;;;;4993987;28;20446;-74
2023/11/12 10:54:42;;;;;;;7.70;5.87;;;12.60;92.90;;;;;;4991977;28;20456;-74
2023/11/12 10:57:08;;;;;;;5.83;5.00;;;12.70;92.80;;;;;;4991144;28;20429;-74
2023/11/12 10:59:37;;;;;;;8.63;5.83;;;12.80;92.80;;;;;;4990903;28;20489;-76
2023/11/12 11:02:06;;;;;;;6.60;5.37;;;12.80;92.60;;;;;;4997168;28;20453;-75
2023/11/12 11:04:34;;;;;;;5.90;5.27;;;12.80;92.40;;;;;;4992355;28;20939;-74
2023/11/12 11:07:08;;;;;;;6.93;6.23;;;12.80;92.20;;;;;;4989201;28;20441;-74
2023/11/12 11:09:38;;;;;;;8.70;6.37;;;12.70;92.10;;;;;;4987101;28;20476;-75
2023/11/12 11:12:09;;;;;;;8.03;5.97;;;12.60;92.20;;;;;;4984219;28;20481;-74
2023/11/12 11:14:36;;;;;;;7.87;5.30;;;12.70;92.60;;;;;;4984085;28;20433;-75
2023/11/12 11:17:05;;;;;;;5.43;4.43;;;12.70;92.20;;;;;;4983070;28;20459;-75
2023/11/12 11:19:54;;;;;;;5.90;5.30;;;12.80;92.20;;;;;;4982502;28;20493;-75
2023/11/12 11:22:27;;;;;;;8.43;5.80;;;13.00;92.20;;;;;;4982059;28;20496;-75
2023/11/12 11:24:55;;;;;;;9.40;5.63;;;13.10;91.60;;;;;;4982000;28;20480;-75
2023/11/12 11:27:25;;;;;;;8.50;5.27;;;13.20;91.20;;;;;;4981224;28;20496;-75
2023/11/12 11:30:12;;;;;;;6.17;5.00;;;13.30;91.10;;;;;;4980148;28;20466;-75
2023/11/12 11:32:55;;;;;;;5.27;4.57;;;13.40;91.10;;;;;;4977789;28;20453;-75
2023/11/12 11:35:24;;;;;;;8.67;4.40;;;13.50;91.10;;;;;;4981661;28;20799;-75
2023/11/12 11:38:11;;;;;;;13.10;9.70;;;13.60;91.10;;;;;;4980754;28;20464;-75
2023/11/12 11:40:39;;;;;;;19.70;12.20;;;13.60;90.80;;;;;;4980535;28;20989;-74
2023/11/12 11:43:33;;;;;;;12.00;8.37;;;13.60;90.80;;;;;;4981212;28;20445;-75
2023/11/12 11:46:17;;;;;;;16.50;10.50;;;13.50;90.60;;;;;;4983276;28;20445;-75
2023/11/12 11:49:18;;;;;;;10.37;7.93;;;13.40;90.50;;;;;;4981894;28;20815;-75
2023/11/12 11:51:48;;;;;;;7.73;6.07;;;13.30;90.60;;;;;;4981743;28;20845;-75
2023/11/12 11:54:15;;;;;;;8.07;5.80;;;13.20;90.70;;;;;;4980217;28;20443;-75
2023/11/12 11:56:43;;;;;;;8.63;6.70;;;13.20;91.00;;;;;;4979948;28;20449;-75
2023/11/12 11:59:13;;;;;;;8.70;6.13;;;13.30;91.20;;;;;;4979331;28;20480;-75
2023/11/12 12:01:46;;;;;;;7.67;5.80;;;13.30;91.10;;;;;;4979408;28;20458;-75
2023/11/12 12:04:14;;;;;;;5.53;4.87;;;13.30;90.90;;;;;;4979523;28;20473;-75
2023/11/12 12:06:44;;;;;;;5.87;4.80;;;13.30;91.00;;;;;;4978927;28;20456;-75
2023/11/12 12:09:17;;;;;;;8.37;5.20;;;13.20;90.70;;;;;;4978761;28;20473;-75
2023/11/12 12:11:44;;;;;;;6.50;5.60;;;13.20;90.50;;;;;;4979283;28;20433;-75
2023/11/12 12:14:16;;;;;;;6.00;5.33;;;13.20;90.50;;;;;;4979467;28;21037;-75
2023/11/12 12:16:43;;;;;;;8.00;5.67;;;13.20;90.50;;;;;;4977327;28;20452;-71
2023/11/12 12:19:15;;;;;;;6.50;4.47;;;13.20;90.60;;;;;;4976789;28;20568;-71
2023/11/12 12:21:47;;;;;;;7.00;4.77;;;13.20;90.60;;;;;;4976627;28;20527;-72
2023/11/12 12:24:13;;;;;;;7.57;4.33;;;13.10;90.10;;;;;;4976723;28;20825;-71
2023/11/12 12:26:43;;;;;;;6.63;3.80;;;13.00;89.70;;;;;;4975792;28;20492;-72
2023/11/12 12:29:20;;;;;;;5.43;3.83;;;12.90;89.30;;;;;;4976344;28;20480;-70
2023/11/12 12:31:54;;;;;;;5.73;4.03;;;12.80;89.30;;;;;;4975257;28;20449;-70
2023/11/12 12:34:24;;;;;;;5.20;4.50;;;12.80;89.20;;;;;;4974888;28;20453;-70
2023/11/12 12:37:05;;;;;;;6.70;3.90;;;12.70;89.20;;;;;;4975473;28;20930;-71
2023/11/12 12:39:47;;;;;;;5.20;3.90;;;12.60;89.60;;;;;;4976109;28;20476;-70
2023/11/12 12:42:15;;;;;;;5.47;4.07;;;12.50;89.90;;;;;;4975860;28;20492;-70
2023/11/12 12:44:51;;;;;;;7.10;4.07;;;12.40;90.10;;;;;;4975989;28;20862;-71
2023/11/12 12:47:41;;;;;;;6.23;3.60;;;12.40;90.40;;;;;;4976798;28;20425;-71
2023/11/12 12:50:25;;;;;;;4.30;3.60;;;12.50;90.80;;;;;;4976465;28;20465;-71
2023/11/12 12:52:56;;;;;;;5.20;3.33;;;12.70;90.80;;;;;;4976501;28;20433;-70
2023/11/12 12:55:24;;;;;;;5.07;4.27;;;13.10;91.20;;;;;;4976261;28;20461;-70
2023/11/12 12:57:51;;;;;;;4.83;3.83;;;13.50;90.70;;;;;;4976229;28;20835;-71
2023/11/12 13:00:21;;;;;;;4.93;3.47;;;13.80;90.10;;;;;;4979607;28;20500;-70
2023/11/12 13:02:49;;;;;;;5.50;3.63;;;13.90;89.10;;;;;;4983163;28;20823;-70